createdAt,value
2019-03-10T00:01:07.497Z,2.02
2019-03-10T00:03:43.239Z,1.70
2019-03-10T00:06:19.106Z,6.78
2019-03-10T00:08:54.948Z,2.80
2019-03-10T00:11:30.814Z,2.15
2019-03-10T00:14:06.653Z,1.47
2019-03-10T00:16:42.405Z,1.57
2019-03-10T00:19:18.318Z,2.20
2019-03-10T00:21:54.122Z,1.80
2019-03-10T00:24:29.861Z,1.67
2019-03-10T00:27:05.627Z,1.92
2019-03-10T00:29:41.467Z,2.10
2019-03-10T00:32:17.334Z,2.10
2019-03-10T00:34:53.281Z,2.25
2019-03-10T00:37:29.139Z,1.85
2019-03-10T00:40:07.963Z,1.70
2019-03-10T00:43:09.519Z,1.67
2019-03-10T00:46:05.444Z,2.15
2019-03-10T00:48:56.258Z,1.82
2019-03-10T00:51:50.018Z,1.85
2019-03-10T00:54:25.780Z,2.00
2019-03-10T00:57:01.632Z,1.75
2019-03-10T00:59:37.492Z,1.20
2019-03-10T01:02:13.346Z,1.65
2019-03-10T01:04:49.195Z,1.40
2019-03-10T01:07:24.935Z,1.52
2019-03-10T01:10:00.810Z,1.82
2019-03-10T01:12:36.658Z,1.70
2019-03-10T01:15:14.046Z,1.67
2019-03-10T01:17:50.200Z,1.90
2019-03-10T01:20:26.163Z,1.50
2019-03-10T01:23:02.926Z,1.37
2019-03-10T01:25:57.731Z,1.80
2019-03-10T01:28:33.591Z,1.50
2019-03-10T01:31:21.327Z,1.80
2019-03-10T01:34:16.728Z,1.70
2019-03-10T01:36:52.594Z,1.90
2019-03-10T01:39:28.350Z,1.72
2019-03-10T01:42:04.197Z,1.50
2019-03-10T01:44:40.048Z,1.80
2019-03-10T01:47:15.900Z,1.95
2019-03-10T01:49:51.749Z,1.52
2019-03-10T01:52:27.667Z,1.65
2019-03-10T01:55:03.664Z,1.85
2019-03-10T01:57:39.630Z,2.37
2019-03-10T02:00:18.352Z,1.70
2019-03-10T02:02:54.200Z,2.15
2019-03-10T02:05:30.059Z,1.70
2019-03-10T02:08:06.005Z,1.67
2019-03-10T02:10:41.867Z,1.72
2019-03-10T02:13:17.650Z,2.08
2019-03-10T02:15:53.872Z,1.70
2019-03-10T02:18:29.621Z,1.90
2019-03-10T02:21:05.656Z,2.30
2019-03-10T02:23:41.539Z,2.02
2019-03-10T02:26:17.306Z,2.47
2019-03-10T02:28:53.154Z,1.60
2019-03-10T02:31:28.999Z,1.87
2019-03-10T02:34:04.866Z,2.08
2019-03-10T02:36:40.711Z,2.60
2019-03-10T02:39:16.659Z,1.47
2019-03-10T02:41:52.423Z,2.65
2019-03-10T02:44:28.283Z,1.67
2019-03-10T02:47:04.134Z,1.87
2019-03-10T02:49:39.985Z,2.42
2019-03-10T02:52:15.827Z,2.10
2019-03-10T02:54:51.699Z,2.20
2019-03-10T02:57:27.548Z,2.12
2019-03-10T03:00:04.728Z,1.87
2019-03-10T03:02:40.573Z,1.92
2019-03-10T03:05:16.330Z,1.77
2019-03-10T03:07:52.188Z,2.10
2019-03-10T03:10:27.948Z,1.90
2019-03-10T03:13:03.688Z,2.30
2019-03-10T03:15:39.545Z,2.25
2019-03-10T03:18:15.387Z,2.30
2019-03-10T03:20:51.146Z,2.65
2019-03-10T03:23:27.008Z,2.35
2019-03-10T03:26:02.862Z,2.27
2019-03-10T03:28:38.708Z,2.20
2019-03-10T03:31:14.584Z,2.02
2019-03-10T03:33:51.435Z,2.27
2019-03-10T03:36:32.233Z,1.90
2019-03-10T03:39:17.465Z,2.20
2019-03-10T03:41:53.345Z,2.00
2019-03-10T03:44:29.294Z,2.25
2019-03-10T03:47:05.144Z,2.60
2019-03-10T03:49:41.113Z,2.47
2019-03-10T03:52:16.952Z,2.52
2019-03-10T03:54:52.706Z,2.10
2019-03-10T03:57:28.575Z,2.00
2019-03-10T04:00:08.216Z,2.36
2019-03-10T04:02:43.954Z,2.42
2019-03-10T04:05:19.822Z,2.27
2019-03-10T04:07:55.663Z,2.12
2019-03-10T04:10:31.516Z,2.02
2019-03-10T04:13:07.268Z,1.70
2019-03-10T04:15:43.225Z,2.00
2019-03-10T04:18:19.383Z,1.98
2019-03-10T04:20:55.144Z,2.60
2019-03-10T04:23:31.011Z,2.20
2019-03-10T04:26:06.849Z,1.92
2019-03-10T04:28:42.708Z,2.60
2019-03-10T04:31:18.551Z,3.35
2019-03-10T04:33:54.303Z,2.90
2019-03-10T04:36:30.065Z,4.17
2019-03-10T04:39:07.449Z,4.10
2019-03-10T04:41:43.304Z,2.87
2019-03-10T04:44:20.089Z,2.72
2019-03-10T04:46:55.931Z,8.40
2019-03-10T04:49:31.795Z,4.30
2019-03-10T04:52:07.647Z,6.47
2019-03-10T04:54:50.870Z,9.13
2019-03-10T04:57:27.951Z,4.15
2019-03-10T05:00:04.731Z,6.58
2019-03-10T05:02:40.689Z,3.22
2019-03-10T05:05:17.670Z,3.50
2019-03-10T05:07:53.521Z,3.50
2019-03-10T05:10:29.381Z,3.00
2019-03-10T05:13:05.117Z,3.90
2019-03-10T05:15:40.975Z,4.60
2019-03-10T05:18:16.840Z,3.40
2019-03-10T05:20:52.695Z,3.20
2019-03-10T05:23:36.632Z,4.33
2019-03-10T05:26:12.590Z,4.25
2019-03-10T05:28:49.676Z,4.35
2019-03-10T05:31:25.532Z,2.95
2019-03-10T05:34:01.380Z,4.85
2019-03-10T05:36:37.238Z,4.20
2019-03-10T05:39:13.064Z,3.90
2019-03-10T05:41:48.839Z,3.77
2019-03-10T05:44:24.703Z,3.45
2019-03-10T05:47:00.435Z,3.80
2019-03-10T05:49:36.231Z,3.40
2019-03-10T05:52:12.046Z,3.90
2019-03-10T05:54:48.148Z,3.70
2019-03-10T05:57:23.819Z,3.47
2019-03-10T05:59:59.616Z,3.40
2019-03-10T06:02:35.466Z,4.22
2019-03-10T06:05:11.324Z,4.30
2019-03-10T06:07:47.174Z,3.37
2019-03-10T06:10:24.048Z,3.42
2019-03-10T06:12:59.902Z,3.60
2019-03-10T06:15:36.789Z,4.20
2019-03-10T06:18:13.874Z,5.15
2019-03-10T06:20:50.009Z,4.42
2019-03-10T06:23:27.727Z,4.00
2019-03-10T06:26:04.509Z,3.45
2019-03-10T06:28:40.395Z,5.33
2019-03-10T06:31:16.149Z,6.22
2019-03-10T06:33:51.916Z,6.33
2019-03-10T06:36:36.794Z,6.75
2019-03-10T06:39:17.314Z,6.22
2019-03-10T06:41:53.135Z,4.55
2019-03-10T06:44:29.004Z,6.10
2019-03-10T06:47:04.839Z,5.17
2019-03-10T06:49:40.709Z,4.45
2019-03-10T06:52:16.556Z,4.72
2019-03-10T06:54:52.407Z,5.83
2019-03-10T06:57:28.181Z,4.53
2019-03-10T07:00:05.348Z,4.67
2019-03-10T07:02:41.199Z,4.90
2019-03-10T07:05:16.944Z,3.92
2019-03-10T07:07:52.802Z,3.75
2019-03-10T07:10:28.554Z,3.67
2019-03-10T07:13:04.419Z,5.05
2019-03-10T07:15:40.309Z,3.72
2019-03-10T07:18:17.343Z,3.70
2019-03-10T07:20:54.737Z,5.03
2019-03-10T07:23:31.214Z,4.60
2019-03-10T07:26:07.068Z,30.95
2019-03-10T07:28:44.647Z,6.65
2019-03-10T07:31:31.259Z,4.72
2019-03-10T07:34:25.144Z,5.47
2019-03-10T07:37:02.473Z,5.25
2019-03-10T07:39:42.587Z,4.78
2019-03-10T07:42:26.015Z,5.58
2019-03-10T07:45:06.479Z,4.83
2019-03-10T07:48:00.037Z,6.40
2019-03-10T07:50:40.877Z,8.63
2019-03-10T07:53:18.305Z,6.65
2019-03-10T07:56:05.014Z,5.90
2019-03-10T07:58:42.514Z,5.90
2019-03-10T08:01:38.219Z,5.85
2019-03-10T08:04:31.899Z,5.87
2019-03-10T08:07:27.878Z,6.25
2019-03-10T08:10:24.671Z,5.58
2019-03-10T08:13:11.178Z,5.97
2019-03-10T08:15:57.924Z,5.37
2019-03-10T08:18:35.272Z,5.53
2019-03-10T08:21:12.677Z,13.20
2019-03-10T08:23:53.116Z,35.65
2019-03-10T08:26:33.471Z,7.30
2019-03-10T08:29:16.910Z,6.50
2019-03-10T08:31:57.368Z,7.95
2019-03-10T08:34:40.608Z,6.15
2019-03-10T08:37:24.047Z,6.20
2019-03-10T08:40:01.532Z,9.98
2019-03-10T08:42:55.091Z,6.30
2019-03-10T08:45:38.518Z,5.97
2019-03-10T08:48:15.912Z,6.85
2019-03-10T08:50:53.315Z,6.83
2019-03-10T08:53:39.921Z,7.15
2019-03-10T08:56:20.368Z,6.83
2019-03-10T08:59:07.076Z,8.95
2019-03-10T09:02:00.653Z,8.58
2019-03-10T09:04:54.421Z,5.62
2019-03-10T09:07:31.813Z,8.20
2019-03-10T09:10:28.047Z,6.47
2019-03-10T09:13:08.208Z,7.75
2019-03-10T09:15:45.590Z,9.10
2019-03-10T09:18:35.065Z,10.78
2019-03-10T09:21:21.461Z,6.90
2019-03-10T09:24:07.963Z,7.42
2019-03-10T09:26:54.380Z,5.80
2019-03-10T09:29:34.534Z,6.08
2019-03-10T09:32:14.682Z,5.17
2019-03-10T09:34:54.831Z,5.30
2019-03-10T09:37:38.070Z,5.00
2019-03-10T09:40:18.432Z,4.83
2019-03-10T09:43:08.005Z,4.65
2019-03-10T09:46:03.724Z,5.47
2019-03-10T09:48:41.111Z,5.75
2019-03-10T09:51:27.934Z,6.10
2019-03-10T09:54:21.802Z,5.00
2019-03-10T09:57:01.958Z,6.30
2019-03-10T09:59:39.463Z,5.58
2019-03-10T10:02:29.028Z,5.55
2019-03-10T10:05:11.333Z,7.03
2019-03-10T10:08:04.476Z,6.17
2019-03-10T10:10:50.884Z,6.97
2019-03-10T10:13:28.278Z,7.83
2019-03-10T10:16:08.486Z,7.85
2019-03-10T10:18:51.660Z,11.20
2019-03-10T10:21:28.994Z,5.53
2019-03-10T10:24:06.537Z,6.22
2019-03-10T10:26:43.890Z,5.92
2019-03-10T10:29:37.524Z,6.78
2019-03-10T10:32:17.832Z,7.65
2019-03-10T10:34:57.945Z,7.83
2019-03-10T10:37:38.342Z,9.08
2019-03-10T10:40:31.767Z,19.90
2019-03-10T10:43:18.044Z,7.75
2019-03-10T10:45:58.185Z,7.47
2019-03-10T10:48:38.970Z,5.70
2019-03-10T10:51:19.112Z,9.25
2019-03-10T10:54:11.857Z,7.12
2019-03-10T10:56:49.258Z,4.78
2019-03-10T10:59:35.763Z,5.83
2019-03-10T11:02:13.152Z,7.75
2019-03-10T11:05:07.136Z,7.03
2019-03-10T11:07:50.565Z,7.67
2019-03-10T11:10:29.077Z,5.97
2019-03-10T11:13:09.439Z,5.37
2019-03-10T11:16:02.179Z,4.92
2019-03-10T11:18:39.755Z,5.55
2019-03-10T11:21:17.163Z,4.78
2019-03-10T11:24:00.600Z,4.47
2019-03-10T11:26:44.037Z,4.37
2019-03-10T11:29:24.189Z,3.30
2019-03-10T11:32:01.584Z,3.35
2019-03-10T11:34:44.803Z,3.72
2019-03-10T11:37:34.491Z,4.67
2019-03-10T11:40:12.395Z,4.73
2019-03-10T11:42:49.784Z,6.10
2019-03-10T11:45:42.329Z,4.45
2019-03-10T11:48:19.819Z,4.20
2019-03-10T11:51:09.190Z,7.58
2019-03-10T11:53:46.492Z,6.83
2019-03-10T11:56:29.707Z,4.60
2019-03-10T11:59:07.299Z,3.40
2019-03-10T12:01:47.867Z,4.08
2019-03-10T12:04:34.153Z,3.77
2019-03-10T12:07:20.873Z,3.20
2019-03-10T12:09:56.724Z,3.05
2019-03-10T12:12:32.582Z,3.58
2019-03-10T12:15:11.488Z,3.37
2019-03-10T12:17:47.885Z,3.92
2019-03-10T12:20:23.611Z,4.67
2019-03-10T12:23:00.331Z,4.72
2019-03-10T12:25:36.139Z,3.33
2019-03-10T12:28:13.325Z,5.92
2019-03-10T12:30:49.175Z,2.67
2019-03-10T12:33:25.044Z,3.30
2019-03-10T12:36:00.887Z,3.67
2019-03-10T12:38:36.737Z,8.20
2019-03-10T12:41:12.605Z,5.97
2019-03-10T12:43:48.443Z,3.35
2019-03-10T12:46:24.303Z,4.92
2019-03-10T12:49:00.161Z,3.65
2019-03-10T12:51:36.011Z,4.67
2019-03-10T12:54:11.669Z,4.28
2019-03-10T12:56:47.520Z,5.55
2019-03-10T12:59:23.479Z,4.97
2019-03-10T13:01:59.323Z,4.20
2019-03-10T13:04:35.177Z,5.85
2019-03-10T13:07:12.463Z,5.10
2019-03-10T13:09:48.329Z,5.15
2019-03-10T13:12:24.196Z,9.60
2019-03-10T13:15:00.312Z,7.37
2019-03-10T13:17:36.506Z,14.15
2019-03-10T13:20:12.867Z,15.73
2019-03-10T13:22:48.710Z,9.75
2019-03-10T13:25:24.464Z,22.60
2019-03-10T13:28:00.330Z,8.90
2019-03-10T13:30:37.914Z,14.68
2019-03-10T13:33:14.791Z,14.38
2019-03-10T13:35:50.666Z,27.42
2019-03-10T13:38:26.508Z,25.43
2019-03-10T13:41:04.570Z,15.23
2019-03-10T13:43:40.672Z,14.47
2019-03-10T13:46:18.412Z,12.78
2019-03-10T13:48:54.442Z,10.45
2019-03-10T13:51:30.218Z,11.28
2019-03-10T13:54:06.038Z,12.35
2019-03-10T13:56:41.888Z,39.67
2019-03-10T13:59:18.675Z,52.90
2019-03-10T14:01:55.029Z,28.67
2019-03-10T14:04:31.794Z,17.70
2019-03-10T14:07:07.574Z,14.93
2019-03-10T14:09:43.622Z,39.20
2019-03-10T14:12:19.493Z,88.75
2019-03-10T14:14:55.662Z,110.72
2019-03-10T14:17:33.054Z,86.47
2019-03-10T14:20:10.966Z,162.50
2019-03-10T14:22:47.047Z,122.60
2019-03-10T14:25:23.047Z,62.27
2019-03-10T14:27:59.566Z,54.50
2019-03-10T14:30:36.900Z,133.63
2019-03-10T14:33:13.152Z,125.58
2019-03-10T14:35:48.951Z,144.15
2019-03-10T14:38:24.740Z,87.10
2019-03-10T14:41:00.485Z,106.95
2019-03-10T14:43:36.376Z,80.10
2019-03-10T14:46:12.191Z,64.50
2019-03-10T14:48:48.052Z,67.58
2019-03-10T14:51:23.815Z,71.90
2019-03-10T14:53:59.577Z,26.00
2019-03-10T14:56:35.442Z,15.35
2019-03-10T14:59:11.297Z,11.90
2019-03-10T15:01:47.051Z,13.70
2019-03-10T15:04:22.891Z,13.25
2019-03-10T15:06:58.851Z,12.35
2019-03-10T15:09:34.814Z,11.15
2019-03-10T15:12:10.667Z,11.43
2019-03-10T15:14:46.509Z,11.35
2019-03-10T15:17:22.368Z,10.80
2019-03-10T15:19:59.344Z,10.82
2019-03-10T15:22:35.625Z,14.50
2019-03-10T15:25:13.520Z,8.03
2019-03-10T15:27:49.580Z,7.17
2019-03-10T15:30:26.647Z,7.95
2019-03-10T15:33:02.517Z,6.78
2019-03-10T15:35:38.367Z,6.33
2019-03-10T15:38:14.218Z,11.60
2019-03-10T15:40:50.077Z,13.50
2019-03-10T15:43:25.930Z,11.90
2019-03-10T15:46:01.783Z,7.03
2019-03-10T15:48:38.157Z,7.92
2019-03-10T15:51:13.994Z,6.40
2019-03-10T15:53:49.855Z,5.67
2019-03-10T15:56:25.706Z,11.33
2019-03-10T15:59:02.785Z,7.95
2019-03-10T16:01:38.546Z,6.45
2019-03-10T16:04:18.780Z,4.55
2019-03-10T16:06:54.548Z,4.62
2019-03-10T16:09:30.401Z,4.90
2019-03-10T16:12:13.876Z,4.90
2019-03-10T16:14:55.214Z,5.92
2019-03-10T16:17:30.962Z,9.83
2019-03-10T16:20:09.499Z,13.13
2019-03-10T16:22:45.551Z,15.83
2019-03-10T16:25:22.943Z,9.95
2019-03-10T16:27:58.900Z,8.85
2019-03-10T16:30:34.848Z,4.60
2019-03-10T16:33:11.021Z,4.92
2019-03-10T16:35:46.871Z,4.05
2019-03-10T16:38:22.716Z,5.10
2019-03-10T16:40:58.520Z,3.95
2019-03-10T16:43:34.317Z,3.77
2019-03-10T16:46:10.185Z,4.97
2019-03-10T16:48:46.029Z,5.22
2019-03-10T16:51:21.887Z,5.27
2019-03-10T16:53:57.753Z,6.28
2019-03-10T16:56:33.596Z,5.30
2019-03-10T16:59:09.459Z,5.78
2019-03-10T17:01:45.404Z,7.62
2019-03-10T17:04:21.259Z,4.60
2019-03-10T17:06:57.104Z,4.65
2019-03-10T17:09:32.958Z,5.00
2019-03-10T17:12:09.954Z,7.55
2019-03-10T17:14:46.919Z,15.58
2019-03-10T17:17:22.784Z,12.63
2019-03-10T17:19:58.695Z,5.97
2019-03-10T17:22:34.480Z,6.10
2019-03-10T17:25:11.781Z,5.10
2019-03-10T17:27:47.929Z,5.47
2019-03-10T17:30:25.835Z,4.60
2019-03-10T17:33:01.993Z,4.70
2019-03-10T17:35:37.880Z,4.47
2019-03-10T17:38:18.221Z,4.62
2019-03-10T17:40:54.075Z,5.97
2019-03-10T17:43:29.816Z,5.70
2019-03-10T17:46:05.670Z,5.33
2019-03-10T17:48:41.537Z,5.62
2019-03-10T17:51:17.380Z,5.67
2019-03-10T17:53:53.239Z,4.78
2019-03-10T17:56:29.086Z,5.60
2019-03-10T17:59:04.945Z,5.92
2019-03-10T18:01:40.820Z,3.87
2019-03-10T18:04:16.648Z,3.85
2019-03-10T18:06:53.845Z,4.35
2019-03-10T18:09:29.697Z,5.70
2019-03-10T18:12:05.754Z,4.90
2019-03-10T18:14:41.492Z,4.37
2019-03-10T18:17:17.357Z,6.08
2019-03-10T18:19:53.098Z,3.80
2019-03-10T18:22:28.850Z,4.15
2019-03-10T18:25:05.767Z,12.73
2019-03-10T18:27:42.652Z,6.83
2019-03-10T18:30:27.423Z,3.90
2019-03-10T18:33:04.393Z,3.58
2019-03-10T18:35:40.328Z,4.00
2019-03-10T18:38:16.217Z,3.12
2019-03-10T18:40:52.036Z,3.35
2019-03-10T18:43:27.810Z,3.30
2019-03-10T18:46:03.664Z,4.80
2019-03-10T18:48:39.439Z,4.17
2019-03-10T18:51:15.157Z,4.08
2019-03-10T18:53:50.966Z,4.70
2019-03-10T18:56:28.672Z,5.47
2019-03-10T18:59:09.353Z,5.70
2019-03-10T19:01:45.422Z,7.83
2019-03-10T19:04:21.259Z,9.28
2019-03-10T19:06:57.123Z,21.30
2019-03-10T19:09:33.999Z,4.67
2019-03-10T19:12:09.773Z,4.33
2019-03-10T19:14:45.698Z,4.72
2019-03-10T19:17:21.658Z,4.15
2019-03-10T19:19:57.526Z,4.85
2019-03-10T19:22:33.372Z,5.53
2019-03-10T19:25:11.773Z,5.42
2019-03-10T19:27:47.641Z,5.55
2019-03-10T19:30:24.178Z,6.28
2019-03-10T19:33:00.364Z,5.20
2019-03-10T19:35:36.658Z,5.70
2019-03-10T19:38:14.283Z,6.75
2019-03-10T19:40:51.826Z,4.95
2019-03-10T19:43:27.528Z,7.50
2019-03-10T19:46:03.304Z,9.15
2019-03-10T19:48:39.148Z,4.30
2019-03-10T19:51:14.928Z,6.62
2019-03-10T19:53:50.685Z,4.95
2019-03-10T19:56:26.527Z,6.60
2019-03-10T19:59:02.401Z,5.08
2019-03-10T20:01:38.248Z,4.17
2019-03-10T20:04:14.093Z,3.08
2019-03-10T20:06:50.978Z,5.72
2019-03-10T20:09:26.823Z,2.75
2019-03-10T20:12:02.672Z,4.00
2019-03-10T20:14:38.845Z,3.90
2019-03-10T20:17:14.593Z,8.70
2019-03-10T20:19:50.456Z,22.62
2019-03-10T20:22:26.303Z,13.78
2019-03-10T20:25:03.182Z,19.35
2019-03-10T20:27:39.242Z,16.55
2019-03-10T20:30:18.055Z,12.60
2019-03-10T20:32:54.237Z,13.10
2019-03-10T20:35:30.089Z,8.28
2019-03-10T20:38:06.033Z,14.87
2019-03-10T20:40:41.889Z,5.92
2019-03-10T20:43:17.732Z,8.10
2019-03-10T20:45:54.098Z,7.37
2019-03-10T20:48:29.960Z,6.03
2019-03-10T20:51:05.813Z,6.97
2019-03-10T20:53:41.877Z,7.47
2019-03-10T20:56:17.727Z,12.23
2019-03-10T20:58:53.779Z,13.13
2019-03-10T21:01:29.644Z,11.43
2019-03-10T21:04:05.489Z,12.78
2019-03-10T21:06:41.342Z,14.40
2019-03-10T21:09:17.227Z,6.40
2019-03-10T21:11:53.162Z,9.53
2019-03-10T21:14:28.972Z,6.25
2019-03-10T21:17:04.761Z,5.60
2019-03-10T21:19:40.615Z,7.10
2019-03-10T21:22:16.471Z,8.58
2019-03-10T21:24:52.332Z,9.50
2019-03-10T21:27:28.281Z,8.03
2019-03-10T21:30:08.129Z,9.92
2019-03-10T21:32:44.080Z,7.45
2019-03-10T21:35:19.938Z,4.85
2019-03-10T21:37:55.797Z,8.95
2019-03-10T21:40:32.805Z,8.30
2019-03-10T21:43:08.646Z,6.53
2019-03-10T21:45:44.489Z,5.47
2019-03-10T21:48:20.234Z,8.43
2019-03-10T21:50:56.097Z,6.05
2019-03-10T21:53:31.834Z,5.25
2019-03-10T21:56:07.556Z,4.28
2019-03-10T21:58:43.335Z,4.15
2019-03-10T22:01:19.201Z,3.90
2019-03-10T22:03:55.052Z,4.85
2019-03-10T22:06:31.923Z,6.22
2019-03-10T22:09:07.985Z,2.10
2019-03-10T22:11:45.280Z,3.37
2019-03-10T22:14:21.136Z,3.22
2019-03-10T22:16:56.878Z,3.58
2019-03-10T22:19:32.749Z,4.60
2019-03-10T22:22:08.584Z,4.50
2019-03-10T22:24:44.451Z,3.83
2019-03-10T22:27:21.324Z,3.45
2019-03-10T22:29:57.984Z,3.75
2019-03-10T22:32:33.857Z,3.27
2019-03-10T22:35:10.938Z,3.35
2019-03-10T22:37:46.894Z,3.27
2019-03-10T22:40:22.751Z,2.60
2019-03-10T22:42:59.012Z,2.50
2019-03-10T22:45:34.854Z,2.17
2019-03-10T22:48:10.714Z,2.65
2019-03-10T22:50:46.573Z,1.82
2019-03-10T22:53:22.418Z,2.25
2019-03-10T22:55:58.168Z,1.60
2019-03-10T22:58:34.032Z,2.12
2019-03-10T23:01:09.774Z,2.05
2019-03-10T23:03:45.538Z,2.08
2019-03-10T23:06:21.286Z,1.67
2019-03-10T23:08:57.140Z,2.27
2019-03-10T23:11:33.421Z,1.60
2019-03-10T23:14:09.256Z,1.70
2019-03-10T23:16:45.122Z,1.57
2019-03-10T23:19:20.967Z,1.30
2019-03-10T23:21:56.812Z,1.52
2019-03-10T23:24:32.569Z,1.15
2019-03-10T23:27:08.316Z,1.52
2019-03-10T23:29:44.066Z,1.22
2019-03-10T23:32:20.134Z,1.27
2019-03-10T23:34:55.869Z,1.30
2019-03-10T23:37:31.723Z,2.10
2019-03-10T23:40:15.113Z,1.05
2019-03-10T23:42:50.907Z,1.12
2019-03-10T23:45:26.767Z,0.98
2019-03-10T23:48:03.231Z,1.00
2019-03-10T23:50:39.087Z,0.93
2019-03-10T23:53:14.948Z,0.78
2019-03-10T23:55:50.791Z,0.90
2019-03-10T23:58:26.653Z,0.80
